메인 페이지
METAR-TAF:

METAR-TAF

공항 :

무안국제공항

광주광역, 대한민국

위도: 34-59-29N, 경도: 126-22-58E, 고도: 16m

현재 날씨관측

예보는 30분 전, 17:00시(UTC)에 발표되었습니다.
동북동2kt
온도 9°C
습도 100%
기압 1018 hPa
시정 10km 이상

METAR: RKJB 171700Z AUTO 06002KT 9999 NCD 09/09 Q1018

시각: 02:30 (17:30 UTC)

예보

예보는 6 시간 30분 전, 11:00시(UTC)에 발표되었습니다.
예보 대상 시간: 17일 12시부터 18일 18시까지 (UTC)
북북서7kt
시정 10km 이상
고도 3000ft 상공 구름 조금
전환 중
17일 15시부터 17일 16시까지 (UTC)
5kt
시정: 4200m
박무
전환 중
18일 01시부터 18일 02시까지 (UTC)
북북서10kt
시정: 6000m
전환 중
18일 12시부터 18일 13시까지 (UTC)
5kt
시정: 4200m
박무

TAF: RKJB 171100Z 1712/1818 34007KT 9999 FEW030 TN08/1721Z TX18/1805Z BECMG 1715/1716 08005KT 4200 BR BECMG 1801/1802 34010KT 6000 NSW BECMG 1812/1813 10005KT 4200 BR

4,000개 이상의 공항 관측 자료 및 예보 (METAR 및 TAF 보고).

지도상에서 검색 가능한 기상관측소가 노란 점과 빨간 점으로 표시되어 있습니다.

기상관측소 명을 보려면 표시 위로 마우스를 이동하세요.

날씨 관측과 예보를 보려면 클릭하세요.

지도 변경 : 확대하려면 엑스 표시가 있는 녹색 버튼, 축소하려면 빼기 표시가 있는 녹색 버튼, 다음 페이지의 지도를 보려면 녹색 화살표를 클릭하세요.


METAR-TAF: